createdAt,value
2018-08-04T00:00:44.190Z,8.57
2018-08-04T00:03:25.906Z,8.30
2018-08-04T00:06:24.739Z,7.97
2018-08-04T00:09:06.406Z,6.43
2018-08-04T00:11:48.298Z,7.13
2018-08-04T00:14:29.973Z,6.73
2018-08-04T00:17:12.235Z,6.43
2018-08-04T00:19:53.455Z,6.53
2018-08-04T00:22:34.111Z,7.13
2018-08-04T00:25:15.037Z,6.93
2018-08-04T00:27:56.602Z,6.23
2018-08-04T00:30:38.223Z,6.70
2018-08-04T00:33:19.209Z,6.90
2018-08-04T00:36:00.992Z,7.00
2018-08-04T00:38:42.644Z,6.17
2018-08-04T00:41:24.240Z,5.83
2018-08-04T00:44:06.000Z,7.20
2018-08-04T00:46:47.446Z,7.30
2018-08-04T00:49:28.099Z,6.07
2018-08-04T00:52:09.062Z,6.10
2018-08-04T00:54:50.653Z,6.27
2018-08-04T00:57:32.684Z,6.20
2018-08-04T01:00:14.254Z,6.53
2018-08-04T01:02:55.514Z,6.97
2018-08-04T01:05:36.728Z,6.30
2018-08-04T01:08:17.440Z,6.77
2018-08-04T01:10:58.218Z,6.83
2018-08-04T01:13:39.803Z,6.80
2018-08-04T01:16:21.653Z,7.10
2018-08-04T01:19:04.168Z,6.47
2018-08-04T01:21:44.870Z,6.37
2018-08-04T01:24:25.540Z,6.70
2018-08-04T01:27:06.342Z,6.67
2018-08-04T01:29:48.093Z,6.90
2018-08-04T01:32:29.085Z,7.13
2018-08-04T01:35:10.643Z,6.63
2018-08-04T01:37:51.963Z,7.07
2018-08-04T01:40:34.622Z,7.50
2018-08-04T01:43:16.042Z,7.10
2018-08-04T01:45:57.788Z,7.10
2018-08-04T01:54:54.029Z,6.90
2018-08-04T01:57:36.183Z,7.10
2018-08-04T02:00:24.304Z,6.10
2018-08-04T02:03:06.022Z,7.40
2018-08-04T02:06:07.615Z,6.80
2018-08-04T02:08:49.271Z,6.77
2018-08-04T02:11:34.262Z,7.30
2018-08-04T02:17:23.496Z,6.50
2018-08-04T02:20:04.332Z,7.40
2018-08-04T02:22:46.203Z,8.40
2018-08-04T02:28:35.712Z,8.67
2018-08-04T02:31:17.758Z,8.57
2018-08-04T02:33:59.033Z,9.50
2018-08-04T02:36:39.887Z,8.70
2018-08-04T02:39:20.657Z,9.43
2018-08-04T02:42:10.055Z,8.20
2018-08-04T02:44:51.297Z,9.03
2018-08-04T02:47:32.976Z,9.03
2018-08-04T02:50:14.966Z,10.50
2018-08-04T02:53:05.726Z,8.97
2018-08-04T02:55:47.488Z,9.57
2018-08-04T02:58:28.968Z,8.97
2018-08-04T03:01:27.528Z,8.73
2018-08-04T03:04:09.361Z,8.10
2018-08-04T03:06:50.935Z,8.40
2018-08-04T03:09:32.657Z,7.97
2018-08-04T03:12:37.558Z,8.20
2018-08-04T03:15:26.301Z,7.63
2018-08-04T03:18:08.523Z,8.10
2018-08-04T03:20:49.801Z,7.70
2018-08-04T03:26:39.597Z,8.10
2018-08-04T03:29:21.439Z,7.60
2018-08-04T03:32:16.404Z,7.47
2018-08-04T03:35:14.274Z,8.20
2018-08-04T03:37:55.860Z,8.00
2018-08-04T03:40:50.639Z,6.90
2018-08-04T03:43:32.479Z,8.23
2018-08-04T03:46:14.239Z,7.63
2018-08-04T03:48:55.173Z,8.57
2018-08-04T03:51:36.737Z,8.53
2018-08-04T03:54:18.056Z,8.50
2018-08-04T03:56:59.442Z,8.27
2018-08-04T03:59:41.230Z,8.03
2018-08-04T04:02:33.030Z,8.40
2018-08-04T04:05:14.485Z,8.43
2018-08-04T04:07:57.727Z,8.37
2018-08-04T04:10:39.167Z,7.60
2018-08-04T04:13:21.364Z,7.73
2018-08-04T04:16:02.814Z,9.10
2018-08-04T04:18:44.222Z,9.20
2018-08-04T04:21:25.895Z,8.90
2018-08-04T04:24:06.688Z,9.70
2018-08-04T04:26:48.485Z,10.33
2018-08-04T04:29:29.831Z,9.10
2018-08-04T04:32:11.226Z,8.87
2018-08-04T04:34:52.633Z,8.90
2018-08-04T04:37:34.003Z,8.30
2018-08-04T04:40:15.609Z,7.47
2018-08-04T04:42:56.478Z,8.93
2018-08-04T04:45:38.098Z,8.03
2018-08-04T04:48:18.971Z,8.97
2018-08-04T04:50:59.676Z,8.53
2018-08-04T04:53:41.321Z,8.97
2018-08-04T04:56:22.152Z,8.70
2018-08-04T04:59:02.858Z,10.30
2018-08-04T05:01:44.552Z,8.43
2018-08-04T05:04:25.387Z,8.40
2018-08-04T05:07:06.980Z,8.70
2018-08-04T05:09:48.517Z,8.77
2018-08-04T05:12:30.104Z,8.73
2018-08-04T05:15:12.019Z,9.00
2018-08-04T05:17:53.490Z,8.17
2018-08-04T05:20:34.452Z,8.80
2018-08-04T05:23:16.073Z,9.40
2018-08-04T05:25:57.802Z,8.53
2018-08-04T05:28:39.457Z,8.73
2018-08-04T05:31:21.227Z,8.07
2018-08-04T05:34:11.032Z,8.90
2018-08-04T05:36:52.685Z,8.93
2018-08-04T05:39:34.204Z,8.73
2018-08-04T05:42:15.785Z,8.70
2018-08-04T05:44:57.519Z,9.13
2018-08-04T05:47:39.673Z,8.40
2018-08-04T05:50:21.055Z,8.10
2018-08-04T05:53:02.358Z,8.23
2018-08-04T05:55:43.586Z,8.73
2018-08-04T05:58:24.965Z,8.60
2018-08-04T06:01:06.577Z,8.67
2018-08-04T06:03:48.254Z,8.67
2018-08-04T06:06:30.390Z,9.70
2018-08-04T06:09:12.374Z,8.10
2018-08-04T06:11:53.593Z,7.63
2018-08-04T06:14:35.073Z,9.40
2018-08-04T06:17:17.937Z,8.57
2018-08-04T06:19:59.567Z,8.83
2018-08-04T06:22:41.314Z,10.17
2018-08-04T06:25:23.082Z,9.33
2018-08-04T06:28:04.625Z,9.07
2018-08-04T06:30:45.341Z,8.97
2018-08-04T06:33:26.353Z,9.67
2018-08-04T06:36:07.907Z,9.23
2018-08-04T06:38:49.983Z,9.73
2018-08-04T06:41:31.837Z,9.90
2018-08-04T06:44:12.958Z,9.13
2018-08-04T06:46:54.534Z,9.60
2018-08-04T06:49:35.363Z,9.00
2018-08-04T06:52:16.981Z,8.53
2018-08-04T06:54:57.804Z,8.90
2018-08-04T06:57:39.472Z,7.00
2018-08-04T07:00:20.953Z,6.43
2018-08-04T07:03:02.836Z,6.30
2018-08-04T07:05:44.141Z,5.80
2018-08-04T07:08:25.945Z,6.10
2018-08-04T07:11:07.938Z,6.93
2018-08-04T07:13:49.259Z,6.70
2018-08-04T07:16:30.362Z,6.10
2018-08-04T07:19:11.874Z,6.23
2018-08-04T07:21:52.629Z,5.63
2018-08-04T07:24:34.328Z,6.10
2018-08-04T07:27:14.971Z,5.53
2018-08-04T07:29:56.278Z,5.43
2018-08-04T07:32:37.577Z,6.00
2018-08-04T07:35:19.450Z,5.37
2018-08-04T07:38:01.344Z,5.53
2018-08-04T07:40:43.480Z,5.70
2018-08-04T07:43:24.689Z,6.80
2018-08-04T07:46:06.016Z,9.83
2018-08-04T07:48:46.838Z,10.37
2018-08-04T07:51:28.695Z,12.57
2018-08-04T07:54:10.294Z,11.57
2018-08-04T07:56:50.965Z,10.40
2018-08-04T07:59:31.973Z,11.27
2018-08-04T08:02:13.577Z,11.37
2018-08-04T08:04:55.379Z,11.13
2018-08-04T08:07:36.827Z,11.43
2018-08-04T08:10:18.522Z,10.90
2018-08-04T08:13:00.150Z,10.73
2018-08-04T08:15:41.824Z,10.33
2018-08-04T08:18:22.407Z,9.70
2018-08-04T08:21:03.392Z,9.93
2018-08-04T08:23:45.082Z,9.80
2018-08-04T08:26:26.730Z,9.97
2018-08-04T08:29:08.388Z,10.23
2018-08-04T08:31:49.912Z,10.80
2018-08-04T08:34:31.626Z,9.80
2018-08-04T08:37:12.615Z,10.07
2018-08-04T08:39:53.987Z,9.47
2018-08-04T08:42:35.744Z,10.57
2018-08-04T08:45:17.325Z,9.43
2018-08-04T08:47:58.138Z,9.77
2018-08-04T08:50:39.669Z,9.10
2018-08-04T08:53:20.927Z,9.33
2018-08-04T08:56:02.187Z,8.70
2018-08-04T08:58:43.687Z,9.57
2018-08-04T09:01:25.014Z,10.50
2018-08-04T09:04:06.239Z,10.60
2018-08-04T09:06:47.875Z,10.03
2018-08-04T09:09:29.431Z,9.40
2018-08-04T09:12:11.149Z,10.00
2018-08-04T09:14:51.823Z,9.90
2018-08-04T09:17:33.819Z,10.00
2018-08-04T09:20:15.744Z,9.90
2018-08-04T09:22:56.768Z,12.70
2018-08-04T09:25:38.486Z,10.53
2018-08-04T09:28:19.306Z,10.20
2018-08-04T09:31:00.174Z,11.20
2018-08-04T09:33:40.912Z,11.03
2018-08-04T09:36:21.622Z,11.20
2018-08-04T09:39:02.783Z,10.33
2018-08-04T09:41:44.233Z,10.43
2018-08-04T09:44:24.973Z,10.60
2018-08-04T09:47:05.924Z,10.87
2018-08-04T09:49:47.986Z,10.47
2018-08-04T09:52:29.139Z,9.63
2018-08-04T09:55:10.990Z,10.20
2018-08-04T09:57:52.543Z,9.30
2018-08-04T10:00:38.756Z,10.30
2018-08-04T10:03:20.040Z,9.97
2018-08-04T10:06:02.082Z,10.13
2018-08-04T10:08:43.172Z,9.40
2018-08-04T10:11:24.108Z,9.93
2018-08-04T10:14:05.765Z,9.63
2018-08-04T10:16:46.430Z,10.30
2018-08-04T10:19:27.212Z,11.67
2018-08-04T10:22:08.365Z,10.40
2018-08-04T10:24:49.664Z,11.20
2018-08-04T10:27:31.238Z,11.73
2018-08-04T10:30:12.987Z,10.70
2018-08-04T10:32:53.890Z,9.90
2018-08-04T10:35:34.930Z,11.07
2018-08-04T10:38:15.947Z,9.30
2018-08-04T10:40:57.804Z,9.60
2018-08-04T10:43:39.121Z,8.20
2018-08-04T10:46:19.777Z,9.07
2018-08-04T10:49:01.740Z,8.33
2018-08-04T10:51:43.353Z,8.23
2018-08-04T10:54:29.068Z,8.40
2018-08-04T10:57:09.675Z,7.33
2018-08-04T10:59:51.392Z,7.63
2018-08-04T11:02:32.102Z,7.23
2018-08-04T11:05:12.884Z,8.50
2018-08-04T11:07:54.439Z,7.63
2018-08-04T11:10:36.168Z,7.73
2018-08-04T11:13:17.878Z,7.77
2018-08-04T11:15:58.704Z,7.67
2018-08-04T11:18:40.250Z,7.67
2018-08-04T11:21:21.190Z,7.60
2018-08-04T11:24:02.160Z,8.50
2018-08-04T11:26:43.236Z,8.57
2018-08-04T11:29:24.118Z,8.63
2018-08-04T11:32:06.020Z,10.67
2018-08-04T11:34:47.781Z,9.73
2018-08-04T11:37:29.050Z,9.70
2018-08-04T11:40:09.923Z,10.27
2018-08-04T11:42:51.391Z,9.10
2018-08-04T11:45:32.397Z,8.57
2018-08-04T11:48:14.189Z,8.67
2018-08-04T11:50:55.850Z,8.60
2018-08-04T11:53:36.658Z,9.93
2018-08-04T11:56:18.319Z,9.20
2018-08-04T11:58:59.852Z,9.10
2018-08-04T12:01:41.524Z,9.10
2018-08-04T12:04:23.119Z,8.70
2018-08-04T12:07:04.944Z,9.17
2018-08-04T12:09:46.650Z,9.40
2018-08-04T12:12:28.216Z,8.13
2018-08-04T12:15:08.994Z,8.03
2018-08-04T12:17:50.414Z,8.43
2018-08-04T12:20:31.383Z,7.97
2018-08-04T12:23:13.796Z,7.50
2018-08-04T12:25:54.907Z,8.30
2018-08-04T12:28:35.648Z,7.77
2018-08-04T12:31:16.276Z,7.83
2018-08-04T12:33:57.305Z,8.70
2018-08-04T12:36:38.924Z,8.90
2018-08-04T12:39:20.501Z,7.57
2018-08-04T12:42:01.387Z,7.43
2018-08-04T12:44:42.191Z,7.27
2018-08-04T12:47:23.966Z,7.60
2018-08-04T12:50:04.846Z,6.03
2018-08-04T12:52:45.737Z,6.70
2018-08-04T12:55:27.492Z,5.73
2018-08-04T12:58:08.309Z,6.37
2018-08-04T13:00:49.049Z,5.90
2018-08-04T13:03:30.592Z,4.83
2018-08-04T13:06:11.844Z,6.33
2018-08-04T13:08:53.397Z,5.30
2018-08-04T13:11:34.296Z,5.07
2018-08-04T13:14:15.965Z,4.93
2018-08-04T13:16:56.720Z,4.60
2018-08-04T13:19:37.430Z,4.50
2018-08-04T13:22:18.217Z,5.23
2018-08-04T13:24:58.877Z,5.00
2018-08-04T13:27:39.580Z,4.83
2018-08-04T13:30:21.362Z,5.03
2018-08-04T13:33:02.945Z,4.97
2018-08-04T13:35:44.562Z,5.37
2018-08-04T13:38:26.793Z,5.40
2018-08-04T13:41:07.790Z,4.67
2018-08-04T13:43:48.478Z,5.23
2018-08-04T13:46:29.095Z,4.63
2018-08-04T13:49:10.788Z,4.60
2018-08-04T13:51:51.470Z,4.60
2018-08-04T13:54:33.111Z,4.53
2018-08-04T13:57:14.800Z,5.50
2018-08-04T13:59:55.652Z,4.17
2018-08-04T14:02:37.252Z,5.93
2018-08-04T14:05:18.614Z,4.10
2018-08-04T14:08:00.133Z,4.13
2018-08-04T14:10:40.952Z,4.20
2018-08-04T14:13:23.886Z,4.73
2018-08-04T14:16:05.844Z,4.30
2018-08-04T14:18:47.645Z,4.73
2018-08-04T14:21:28.496Z,5.70
2018-08-04T14:24:10.272Z,5.10
2018-08-04T14:26:50.985Z,5.10
2018-08-04T14:29:32.650Z,6.87
2018-08-04T14:32:14.192Z,13.93
2018-08-04T14:34:55.281Z,4.80
2018-08-04T14:37:36.942Z,4.87
2018-08-04T14:40:18.601Z,5.17
2018-08-04T14:42:59.992Z,4.77
2018-08-04T14:45:41.620Z,5.07
2018-08-04T14:48:22.970Z,4.07
2018-08-04T14:51:04.469Z,5.43
2018-08-04T14:53:46.119Z,4.20
2018-08-04T14:56:26.901Z,3.77
2018-08-04T14:59:08.122Z,4.53
2018-08-04T15:01:49.421Z,4.40
2018-08-04T15:04:31.094Z,4.63
2018-08-04T15:07:12.774Z,4.73
2018-08-04T15:09:53.716Z,4.73
2018-08-04T15:12:35.539Z,4.83
2018-08-04T15:15:17.285Z,5.23
2018-08-04T15:17:59.904Z,4.77
2018-08-04T15:20:40.676Z,4.73
2018-08-04T15:23:30.790Z,4.90
2018-08-04T15:26:11.901Z,4.43
2018-08-04T15:28:53.820Z,4.90
2018-08-04T15:31:35.404Z,5.03
2018-08-04T15:34:17.130Z,4.73
2018-08-04T15:36:58.794Z,5.10
2018-08-04T15:39:41.183Z,8.53
2018-08-04T15:42:22.087Z,10.13
2018-08-04T15:45:04.011Z,7.97
2018-08-04T15:47:46.061Z,9.83
2018-08-04T15:50:27.243Z,9.93
2018-08-04T15:53:07.988Z,9.40
2018-08-04T15:55:48.761Z,9.57
2018-08-04T15:58:29.847Z,9.20
2018-08-04T16:01:11.470Z,8.67
2018-08-04T16:07:15.974Z,8.50
2018-08-04T16:09:57.864Z,9.10
2018-08-04T16:12:39.324Z,9.70
2018-08-04T16:15:20.093Z,10.00
2018-08-04T16:18:01.499Z,9.97
2018-08-04T16:20:43.357Z,10.73
2018-08-04T16:23:24.818Z,9.83
2018-08-04T16:26:05.791Z,10.60
2018-08-04T16:28:47.422Z,9.73
2018-08-04T16:31:28.442Z,10.10
2018-08-04T16:34:09.263Z,8.97
2018-08-04T16:36:51.187Z,9.70
2018-08-04T16:39:32.443Z,9.27
2018-08-04T16:42:13.460Z,10.10
2018-08-04T16:44:55.383Z,11.17
2018-08-04T16:47:36.737Z,11.10
2018-08-04T16:50:18.294Z,8.77
2018-08-04T16:53:00.186Z,8.80
2018-08-04T16:55:42.371Z,8.90
2018-08-04T16:58:23.762Z,9.20
2018-08-04T17:01:04.577Z,9.03
2018-08-04T17:03:46.117Z,8.67
2018-08-04T17:06:27.075Z,8.90
2018-08-04T17:09:08.682Z,8.47
2018-08-04T17:11:50.332Z,7.77
2018-08-04T17:14:31.762Z,8.10
2018-08-04T17:17:13.688Z,8.10
2018-08-04T17:19:55.628Z,8.37
2018-08-04T17:22:36.850Z,7.93
2018-08-04T17:25:18.221Z,8.07
2018-08-04T17:27:59.873Z,8.10
2018-08-04T17:30:41.480Z,7.67
2018-08-04T17:33:23.323Z,7.47
2018-08-04T17:36:04.925Z,8.27
2018-08-04T17:38:46.628Z,6.70
2018-08-04T17:41:28.373Z,7.53
2018-08-04T17:44:10.746Z,7.20
2018-08-04T17:46:52.033Z,7.00
2018-08-04T17:49:33.669Z,6.73
2018-08-04T17:52:15.203Z,7.50
2018-08-04T17:54:56.903Z,6.60
2018-08-04T17:57:42.229Z,7.33
2018-08-04T18:00:23.520Z,7.20
2018-08-04T18:03:06.680Z,7.00
2018-08-04T18:05:48.055Z,7.50
2018-08-04T18:08:29.867Z,9.47
2018-08-04T18:14:19.420Z,6.30
2018-08-04T18:17:00.901Z,5.47
2018-08-04T18:19:42.484Z,6.10
2018-08-04T18:22:25.121Z,6.30
2018-08-04T18:25:06.898Z,5.40
2018-08-04T18:27:49.526Z,5.70
2018-08-04T18:30:31.083Z,5.40
2018-08-04T18:33:12.223Z,5.73
2018-08-04T18:35:53.788Z,6.00
2018-08-04T18:38:35.854Z,6.03
2018-08-04T18:41:17.044Z,5.60
2018-08-04T18:43:57.798Z,5.80
2018-08-04T18:46:38.594Z,5.00
2018-08-04T18:49:19.269Z,6.03
2018-08-04T18:52:00.037Z,5.10
2018-08-04T18:54:42.733Z,5.40
2018-08-04T18:57:23.464Z,5.60
2018-08-04T19:00:04.429Z,5.50
2018-08-04T19:02:46.626Z,5.17
2018-08-04T19:05:28.732Z,6.10
2018-08-04T19:08:10.469Z,5.67
2018-08-04T19:10:52.278Z,5.80
2018-08-04T19:13:34.133Z,5.40
2018-08-04T19:16:15.578Z,5.13
2018-08-04T19:18:57.385Z,5.50
2018-08-04T19:24:47.656Z,5.57
2018-08-04T19:27:28.780Z,5.17
2018-08-04T19:33:19.357Z,5.00
2018-08-04T19:36:01.009Z,5.47
2018-08-04T19:38:42.568Z,5.07
2018-08-04T19:41:24.333Z,5.77
2018-08-04T19:44:06.385Z,5.70
2018-08-04T19:53:01.472Z,5.83
2018-08-04T19:55:43.157Z,6.40
2018-08-04T19:58:24.130Z,6.10
2018-08-04T20:04:34.919Z,5.70
2018-08-04T20:07:16.963Z,5.37
2018-08-04T20:09:59.228Z,6.10
2018-08-04T20:12:40.942Z,5.80
2018-08-04T20:15:22.642Z,6.33
2018-08-04T20:18:04.255Z,5.77
2018-08-04T20:20:45.965Z,5.60
2018-08-04T20:23:41.001Z,5.80
2018-08-04T20:26:22.981Z,6.10
2018-08-04T20:29:04.149Z,5.63
2018-08-04T20:31:45.758Z,5.90
2018-08-04T20:34:26.596Z,6.20
2018-08-04T20:37:08.357Z,6.13
2018-08-04T20:40:11.072Z,5.70
2018-08-04T20:43:00.961Z,5.53
2018-08-04T20:45:42.644Z,5.47
2018-08-04T20:48:23.411Z,5.80
2018-08-04T20:51:05.205Z,6.23
2018-08-04T20:53:46.715Z,5.30
2018-08-04T20:56:27.637Z,5.87
2018-08-04T20:59:08.732Z,5.90
2018-08-04T21:01:50.986Z,6.13
2018-08-04T21:04:33.034Z,6.10
2018-08-04T21:07:14.643Z,6.53
2018-08-04T21:09:55.512Z,6.13
2018-08-04T21:12:37.316Z,5.60
2018-08-04T21:15:18.742Z,5.90
2018-08-04T21:18:00.422Z,6.00
2018-08-04T21:20:42.107Z,6.80
2018-08-04T21:23:23.992Z,6.10
2018-08-04T21:26:05.500Z,5.90
2018-08-04T21:28:46.836Z,5.90
2018-08-04T21:31:28.292Z,6.40
2018-08-04T21:34:10.757Z,6.10
2018-08-04T21:36:51.599Z,5.77
2018-08-04T21:39:33.417Z,5.57
2018-08-04T21:42:15.815Z,5.33
2018-08-04T21:44:57.449Z,6.00
2018-08-04T21:47:38.187Z,6.30
2018-08-04T21:50:19.085Z,5.67
2018-08-04T21:53:00.932Z,6.10
2018-08-04T21:55:42.498Z,6.03
2018-08-04T21:58:23.508Z,6.60
2018-08-04T22:01:09.821Z,6.97
2018-08-04T22:03:51.729Z,6.77
2018-08-04T22:06:33.868Z,6.60
2018-08-04T22:09:15.694Z,6.27
2018-08-04T22:11:56.975Z,6.90
2018-08-04T22:14:37.955Z,15.37
2018-08-04T22:17:19.209Z,13.47
2018-08-04T22:20:06.960Z,9.43
2018-08-04T22:22:49.082Z,8.20
2018-08-04T22:25:31.030Z,6.37
2018-08-04T22:28:12.207Z,6.80
2018-08-04T22:30:53.802Z,8.03
2018-08-04T22:33:35.647Z,8.67
2018-08-04T22:36:16.712Z,7.60
2018-08-04T22:38:58.218Z,7.10
2018-08-04T22:41:39.070Z,7.53
2018-08-04T22:44:21.010Z,7.90
2018-08-04T22:47:02.449Z,7.17
2018-08-04T22:49:44.624Z,7.30
2018-08-04T22:52:27.089Z,6.00
2018-08-04T22:55:08.375Z,6.63
2018-08-04T22:57:49.580Z,6.47
2018-08-04T23:00:30.303Z,6.43
2018-08-04T23:03:12.355Z,6.00
2018-08-04T23:05:54.207Z,10.97
2018-08-04T23:08:35.660Z,7.00
2018-08-04T23:11:17.326Z,6.53
2018-08-04T23:14:00.372Z,6.40
2018-08-04T23:16:41.785Z,6.27
2018-08-04T23:19:23.069Z,6.67
2018-08-04T23:22:04.899Z,6.67
2018-08-04T23:24:45.780Z,7.07
2018-08-04T23:27:26.581Z,7.13
2018-08-04T23:30:08.116Z,5.70
2018-08-04T23:32:50.404Z,5.10
2018-08-04T23:35:31.680Z,5.97
2018-08-04T23:38:12.610Z,6.00
2018-08-04T23:40:53.552Z,5.77
2018-08-04T23:43:35.127Z,5.43
2018-08-04T23:46:29.912Z,5.00
2018-08-04T23:49:11.571Z,5.23
2018-08-04T23:51:53.174Z,5.40
2018-08-04T23:54:34.192Z,5.03
2018-08-04T23:57:15.613Z,5.20
2018-08-04T23:59:57.263Z,5.27
